• Join FlightAware (Why Join?)
  • Login
  • US Flag 
11:03AM EDT


 

Airport Tracker/Info


-or-


 

Live Flight TrackerFlight Track Log ✈ UAL5999 ✈ 26-Sep-2013 ✈ KORD - CYUL

Flight Track Log - Related Links

Times and Time Zones

All times are in EDT time to prevent confusion due to time zone crossing. See the UAL5999 flight status page for this flight to view local times or setup timezone preferences in your user account.

Time Position Orientation Groundspeed Altitude Reporting Facility
EDT Latitude Longitude Course Direction KTS MPH feet Rate Location/Type
11:55AM 41.9333 -87.9000 60° Northeast 170 196 2,400  Level Chicago TRACON
11:56AM 41.9000 -87.8333 124° Southeast 210 242 4,400 1,860 Climbing Chicago TRACON
11:58AM 41.9331 -87.6375 77° East 266 306 8,500 1,860 Climbing Chicago Center
11:59AM 42.1598 -87.3531 77° East  Level Estimated
12:00PM 42.2040 -87.2142 90° East  Level Estimated
12:00PM 41.9842 -87.5533 51° Northeast 290 334 10,600  Level Chicago Center
12:01PM 42.2584 -87.0862 60° Northeast  Level FlightAware Approximate
12:01PM 42.0403 -87.4600 51° Northeast 315 362 11,900  Level Chicago Center
12:02PM 42.1039 -87.3536 51° Northeast 357 411 13,100 1,380 Climbing Chicago Center
12:03PM 42.1636 -87.2408 54° Northeast 368 423 14,800 1,740 Climbing Chicago Center
12:04PM 42.1808 -87.0744 82° East 373 429 16,800 1,620 Climbing Chicago Center
12:05PM 42.1894 -86.9319 85° East 381 438 18,200 1,380 Climbing Chicago Center
12:06PM 42.1989 -86.7886 85° East 384 442 19,700 1,380 Climbing Chicago Center
12:07PM 42.2083 -86.6569 84° East 386 444 21,100 1,440 Climbing Chicago Center
12:08PM 42.2183 -86.4822 86° East 390 449 22,800 1,440 Climbing Chicago Center
12:09PM 42.2283 -86.3344 85° East 394 453 24,200 1,260 Climbing Chicago Center
12:10PM 42.2364 -86.1872 86° East 393 452 25,500 1,200 Climbing Chicago Center
12:11PM 42.2447 -86.0369 86° East 400 460 26,800 1,260 Climbing Chicago Center
12:12PM 42.2547 -85.8678 85° East 404 465 28,200 1,200 Climbing Chicago Center
12:13PM 42.2631 -85.7172 86° East 406 467 29,300 1,020 Climbing Chicago Center
12:14PM 42.2722 -85.5617 85° East 414 476 30,400 780 Climbing Chicago Center
12:15PM 42.2814 -85.4031 85° East 425 489 31,000 240 Climbing Chicago Center
12:16PM 42.2889 -85.2369 86° East 439 505 31,000  Level Chicago Center
12:17PM 42.2994 -85.0250 86° East 467 537 31,000  Level Chicago Center
12:18PM 42.3000 -84.8467 90° East 477 549 31,000  Level Chicago Center
12:19PM 42.3361 -84.6814 73° East 463 533 31,000 240 Level Chicago Center
12:20PM 42.3703 -84.5169 74° East 457 526 31,600 1,080 Climbing Chicago Center
12:21PM 42.4042 -84.3592 74° East 444 511 33,300 1,680 Climbing Chicago Center
12:22PM 42.4264 -84.2542 74° East 426 490 34,400 1,020 Climbing Cleveland Center
12:23PM 42.4586 -84.1031 74° East 419 482 35,000 240 Climbing Cleveland Center
12:24PM 42.4908 -83.9442 75° East 432 497 35,000  Level Cleveland Center
12:25PM 42.5256 -83.7797 74° East 450 518 35,000  Level Cleveland Center
12:26PM 42.5600 -83.6117 74° East 456 525 35,000  Level Cleveland Center
12:27PM 42.6019 -83.4067 74° East 464 534 35,000  Level Cleveland Center
12:28PM 42.6350 -83.2392 75° East 459 528 35,000  Level Cleveland Center
12:29PM 42.6683 -83.0739 75° East 452 520 35,000  Level Cleveland Center
12:30PM 42.7008 -82.9119 75° East 444 511 35,000  Level Cleveland Center
12:31PM 42.7333 -82.7542 74° East 437 503 35,000  Level Cleveland Center
12:32PM 42.7642 -82.5914 75° East 447 514 35,000  Level Cleveland Center
12:33PM 42.7950 -82.4244 76° East 453 521 35,000  Level Cleveland Center
12:34PM 42.8339 -82.2278 75° East 451 519 35,000  Level Cleveland Center
12:36PM 42.9000 -81.8833 75° East 450 518 35,000  Level Toronto Center
12:37PM 42.9167 -81.7333 81° East 450 518 35,000  Level Toronto Center
12:38PM 42.9500 -81.5500 76° East 450 518 35,000  Level Toronto Center
12:39PM 42.9833 -81.3833 75° East 450 518 35,000  Level Toronto Center
12:40PM 43.0000 -81.2333 81° East 440 506 35,000  Level Toronto Center
12:41PM 43.0333 -81.0667 75° East 430 495 35,000  Level Toronto Center
12:42PM 43.0833 -80.9333 63° Northeast 430 495 35,000  Level Toronto Center
12:43PM 43.1500 -80.7833 59° Northeast 430 495 35,000  Level Toronto Center
12:44PM 43.2000 -80.6333 65° Northeast 430 495 35,000  Level Toronto Center
12:45PM 43.2667 -80.4833 59° Northeast 440 506 35,000  Level Toronto Center
12:46PM 43.3000 -80.3167 75° East 450 518 35,000  Level Toronto Center
12:47PM 43.3667 -80.1667 59° Northeast 450 518 35,000  Level Toronto Center
12:48PM 43.4167 -80.0167 65° Northeast 450 518 35,000  Level Toronto Center
12:49PM 43.4667 -79.8667 65° Northeast 450 518 35,000  Level Toronto Center
12:50PM 43.5167 -79.7000 67° East 450 518 35,000  Level Toronto Center
12:51PM 43.5667 -79.5333 67° East 450 518 35,000  Level Toronto Center
12:52PM 43.6167 -79.4000 63° Northeast 450 518 35,000  Level Toronto Center
12:53PM 43.6833 -79.2333 61° Northeast 450 518 35,000  Level Toronto Center
12:54PM 43.7333 -79.0833 65° Northeast 450 518 35,000  Level Toronto Center
12:55PM 43.7833 -78.9167 67° East 460 529 35,000  Level Toronto Center
12:56PM 43.8333 -78.7500 67° East 460 529 35,000  Level Toronto Center
12:57PM 43.8833 -78.6000 65° Northeast 460 529 35,000  Level Toronto Center
12:58PM 43.9333 -78.4333 67° East 460 529 35,000  Level Toronto Center
12:59PM 43.9833 -78.2667 67° East 460 529 35,000  Level Toronto Center
01:00PM 44.0333 -78.1000 67° East 460 529 35,000  Level Toronto Center
01:01PM 44.0833 -77.9333 67° East 460 529 35,000  Level Toronto Center
01:02PM 44.1500 -77.7667 61° Northeast 460 529 35,000  Level Toronto Center
01:03PM 44.2000 -77.6167 65° Northeast 460 529 35,000  Level Toronto Center
01:04PM 44.2500 -77.4500 67° East 470 541 35,000  Level Toronto Center
01:05PM 44.2833 -77.2833 74° East 470 541 35,000  Level Toronto Center
01:06PM 44.3500 -77.1167 61° Northeast 470 541 35,000  Level Toronto Center
01:07PM 44.4000 -76.9333 69° East 470 541 35,000  Level Montreal Center
01:08PM 44.4500 -76.7667 67° East 470 541 35,000  Level Montreal Center
01:09PM 44.5000 -76.6000 67° East 470 541 35,000  Level Montreal Center
01:10PM 44.5500 -76.4333 67° East 470 541 35,000 -600 Level Montreal Center
01:11PM 44.6000 -76.2500 69° East 460 529 33,900 -1,260 Descending Montreal Center
01:12PM 44.6500 -76.1167 62° Northeast 450 518 32,500 -1,560 Descending Montreal Center
01:13PM 44.7000 -75.9500 67° East 450 518 30,800 -1,800 Descending Montreal Center
01:14PM 44.7500 -75.7833 67° East 460 529 28,900 -2,160 Descending Montreal Center
01:15PM 44.8000 -75.6167 67° East 450 518 26,500 -2,400 Descending Montreal Center
01:16PM 44.8500 -75.4500 67° East 450 518 24,200 -2,460 Descending Montreal Center
01:17PM 44.9000 -75.3000 65° Northeast 420 483 21,600 -2,520 Descending Montreal Center
01:18PM 44.9500 -75.1333 67° East 420 483 19,200 -2,400 Descending Montreal Center
01:19PM 45.0000 -75.0000 62° Northeast 380 437 16,900 -2,100 Descending Montreal Center
01:20PM 45.0500 -74.8833 59° Northeast 380 437 15,000 -2,040 Descending Montreal Center
01:21PM 45.0833 -74.7333 72° East 380 437 12,900 -2,040 Descending Montreal Center
01:22PM 45.1333 -74.6167 59° Northeast 360 414 11,000 -1,500 Descending Montreal Center
01:23PM 45.1667 -74.5000 68° East 300 345 10,000 -1,440 Descending Montreal Center
01:24PM 45.2000 -74.4000 65° Northeast 270 311 8,200 -1,740 Descending Montreal Center
01:25PM 45.2167 -74.3000 77° East 260 299 6,600 -1,560 Descending Montreal Center
01:26PM 45.2500 -74.2000 65° Northeast 250 288 5,100 -1,320 Descending Montreal Center
01:27PM 45.2500 -74.1167 90° East 240 276 4,000 -600 Descending Montreal Center
01:28PM 45.2667 -74.0167 77° East 250 288 4,000 -300 Level Montreal Center
01:29PM 45.3000 -73.9500 55° Northeast 220 253 3,500 -660 Descending Montreal Center
01:30PM 45.3500 -73.9000 35° Northeast 210 242 2,700 -900 Descending Montreal Center
01:31PM 45.3833 -73.8167 60° Northeast 190 219 1,700 -900 Descending Montreal Center
01:32PM 45.4167 -73.8000 19° North 140 161 900 -780 Descending Montreal Center
01:33PM 45.4500 -73.7500 46° Northeast 140 161 200 -420 Descending Montreal Center
01:34PM 45.4667 -73.7167 55° Northeast 40 46 100 -120 Descending Montreal Center